Time;durP1;ratioP1;P1;durP2;ratioP2;P2;SDS_P1;SDS_P2;PMS_P1;PMS_P2;Temp;Humidity;BMP_temperature;BMP_pressure;BME280_temperature;BME280_humidity;BME280_pressure;Samples;Min_cycle;Max_cycle;Signal;HPM_P1;HPM_P2
2022/05/26 00:02:18;;;;;;;1.98;0.90;;;25.70;44.90;;;;;;5053076;28;20059;-61
2022/05/26 00:04:44;;;;;;;1.42;0.82;;;25.70;44.90;;;;;;5056715;28;20173;-60
2022/05/26 00:07:10;;;;;;;1.83;0.85;;;25.70;44.90;;;;;;5053716;28;20039;-60
2022/05/26 00:09:36;;;;;;;1.58;0.75;;;25.60;44.90;;;;;;5054983;28;20036;-61
2022/05/26 00:12:01;;;;;;;1.85;0.90;;;25.60;44.90;;;;;;5053371;28;20095;-60
2022/05/26 00:14:27;;;;;;;2.13;0.90;;;25.60;44.90;;;;;;5054616;28;20193;-61
2022/05/26 00:16:53;;;;;;;1.30;0.70;;;25.60;44.90;;;;;;5054859;28;20052;-62
2022/05/26 00:19:19;;;;;;;1.10;0.70;;;25.60;44.90;;;;;;5054062;28;20029;-63
2022/05/26 00:21:49;;;;;;;1.63;0.90;;;25.60;45.00;;;;;;5051925;28;20031;-62
2022/05/26 00:24:19;;;;;;;1.73;0.82;;;25.60;45.00;;;;;;5052785;28;20028;-60
2022/05/26 00:26:45;;;;;;;1.35;0.80;;;25.50;45.00;;;;;;5052732;28;20048;-63
2022/05/26 00:29:11;;;;;;;1.00;0.80;;;25.50;45.00;;;;;;5059946;28;20028;-59
2022/05/26 00:31:37;;;;;;;1.55;1.00;;;25.50;45.00;;;;;;5057715;28;20054;-60
2022/05/26 00:34:03;;;;;;;1.75;0.80;;;25.50;45.00;;;;;;5058180;28;20705;-63
2022/05/26 00:36:37;;;;;;;0.93;0.70;;;25.50;45.00;;;;;;5055619;28;20035;-62
2022/05/26 00:39:24;;;;;;;1.45;0.77;;;25.50;45.10;;;;;;5057742;28;20345;-63
2022/05/26 00:42:00;;;;;;;1.00;0.80;;;25.50;45.10;;;;;;5058683;28;20039;-60
2022/05/26 00:44:27;;;;;;;1.27;0.80;;;25.40;45.10;;;;;;5056898;28;20029;-60
2022/05/26 00:47:11;;;;;;;1.13;0.90;;;25.40;45.10;;;;;;5054572;28;20043;-61
2022/05/26 00:49:50;;;;;;;0.90;0.70;;;25.40;45.10;;;;;;5056428;28;20032;-62
2022/05/26 00:52:28;;;;;;;1.55;0.70;;;25.40;45.10;;;;;;5058091;28;20075;-59
2022/05/26 00:54:55;;;;;;;0.60;0.60;;;25.40;45.10;;;;;;5056906;28;20265;-60
2022/05/26 00:57:30;;;;;;;1.13;0.85;;;25.40;45.10;;;;;;5056652;28;20042;-60
2022/05/26 01:00:00;;;;;;;1.75;1.00;;;25.40;45.20;;;;;;5057960;28;20028;-63
2022/05/26 01:02:33;;;;;;;1.10;0.80;;;25.40;45.30;;;;;;5054491;28;20043;-63
2022/05/26 01:05:05;;;;;;;0.80;0.70;;;25.40;45.20;;;;;;5055957;28;20543;-59
2022/05/26 01:07:35;;;;;;;1.17;0.80;;;25.40;45.20;;;;;;5055353;28;20036;-64
2022/05/26 01:10:00;;;;;;;1.42;0.82;;;25.30;45.20;;;;;;5057901;28;20025;-61
2022/05/26 01:12:26;;;;;;;1.05;0.70;;;25.30;45.20;;;;;;5057429;28;20101;-60
2022/05/26 01:14:56;;;;;;;1.02;0.80;;;25.30;45.20;;;;;;5055766;28;20126;-63
2022/05/26 01:17:55;;;;;;;1.63;0.70;;;25.30;45.20;;;;;;5056603;28;20136;-63
2022/05/26 01:20:30;;;;;;;1.38;0.77;;;25.30;45.30;;;;;;5038183;28;20035;-58
2022/05/26 01:23:11;;;;;;;1.17;0.73;;;25.30;45.30;;;;;;5041209;28;20678;-59
2022/05/26 01:25:48;;;;;;;1.27;0.70;;;25.30;45.30;;;;;;5052302;28;20082;-60
2022/05/26 01:28:41;;;;;;;0.90;0.70;;;25.30;45.30;;;;;;5055419;28;20115;-62
2022/05/26 01:31:24;;;;;;;1.63;0.70;;;25.30;45.30;;;;;;5055564;28;20037;-60
2022/05/26 01:34:04;;;;;;;1.10;0.70;;;25.30;45.40;;;;;;5056972;28;20047;-63
2022/05/26 01:36:41;;;;;;;1.52;0.70;;;25.20;45.30;;;;;;5053850;28;20391;-59
2022/05/26 01:39:37;;;;;;;1.13;0.77;;;25.20;45.30;;;;;;5056070;28;20028;-59
2022/05/26 01:42:27;;;;;;;1.33;0.80;;;25.20;45.40;;;;;;5056809;28;20040;-62
2022/05/26 01:45:07;;;;;;;1.20;0.70;;;25.20;45.40;;;;;;5057702;28;20035;-63
2022/05/26 01:47:39;;;;;;;0.95;0.73;;;25.20;45.40;;;;;;5054297;28;20024;-60
2022/05/26 01:50:30;;;;;;;1.15;0.70;;;25.20;45.40;;;;;;5056788;28;20135;-59
2022/05/26 01:53:15;;;;;;;1.10;0.70;;;25.20;45.40;;;;;;5056977;28;20131;-58
2022/05/26 01:55:56;;;;;;;0.60;0.60;;;25.10;45.40;;;;;;5054797;28;20111;-62
2022/05/26 01:58:47;;;;;;;0.77;0.63;;;25.10;45.70;;;;;;5056809;28;20048;-58
2022/05/26 02:01:20;;;;;;;1.02;0.70;;;25.10;45.40;;;;;;5058048;28;20040;-61
2022/05/26 02:03:48;;;;;;;0.95;0.65;;;25.10;45.40;;;;;;5058545;28;20025;-62
2022/05/26 02:06:19;;;;;;;1.23;0.77;;;25.10;45.40;;;;;;5056196;28;20597;-64
2022/05/26 02:09:12;;;;;;;1.05;0.70;;;25.10;45.40;;;;;;5059358;28;20029;-60
2022/05/26 02:11:53;;;;;;;1.38;0.70;;;25.10;45.50;;;;;;5056547;28;20349;-60
2022/05/26 02:14:45;;;;;;;1.10;0.70;;;25.10;45.50;;;;;;5057222;28;20317;-58
2022/05/26 02:17:26;;;;;;;0.90;0.70;;;25.10;45.50;;;;;;5057210;28;20496;-60
2022/05/26 02:20:07;;;;;;;1.33;0.75;;;25.10;45.50;;;;;;5055302;28;20475;-61
2022/05/26 02:22:39;;;;;;;0.82;0.68;;;25.10;45.50;;;;;;5055096;28;20094;-63
2022/05/26 02:25:18;;;;;;;1.08;0.70;;;25.10;45.50;;;;;;5056047;28;20017;-63
2022/05/26 02:27:45;;;;;;;;;;;25.10;45.50;;;;;;5055971;28;20056;-60
2022/05/26 02:30:12;;;;;;;0.80;0.60;;;25.10;45.60;;;;;;5056847;28;20393;-61
2022/05/26 02:32:41;;;;;;;0.60;0.57;;;25.10;45.60;;;;;;5056788;28;20117;-63
2022/05/26 02:35:16;;;;;;;0.60;0.50;;;25.00;45.50;;;;;;5055657;28;20443;-61
2022/05/26 02:37:47;;;;;;;1.10;0.75;;;25.00;45.50;;;;;;5054831;28;20098;-58
2022/05/26 02:40:14;;;;;;;0.70;0.70;;;25.00;45.50;;;;;;5054952;28;20059;-62
2022/05/26 02:42:46;;;;;;;1.13;0.70;;;25.00;45.60;;;;;;5057063;28;20124;-58
2022/05/26 02:45:13;;;;;;;0.80;0.60;;;25.00;45.60;;;;;;5055964;28;20027;-60
2022/05/26 02:48:01;;;;;;;1.27;0.70;;;25.00;45.60;;;;;;5057421;28;20036;-60
2022/05/26 02:50:57;;;;;;;0.73;0.52;;;25.00;45.60;;;;;;5053026;28;20032;-61
2022/05/26 02:53:36;;;;;;;0.60;0.60;;;25.00;45.60;;;;;;5056092;28;20032;-62
2022/05/26 02:56:20;;;;;;;0.88;0.63;;;25.00;45.60;;;;;;5056046;28;20055;-62
2022/05/26 02:58:57;;;;;;;0.65;0.60;;;24.90;45.60;;;;;;5055967;28;20045;-60
2022/05/26 03:01:33;;;;;;;0.93;0.50;;;24.90;45.60;;;;;;5053807;28;20040;-63
2022/05/26 03:04:06;;;;;;;1.10;0.70;;;24.90;45.60;;;;;;5057036;28;20028;-61
2022/05/26 03:06:40;;;;;;;0.80;0.60;;;24.90;45.60;;;;;;5050603;28;20095;-62
2022/05/26 03:09:07;;;;;;;0.55;0.52;;;24.90;45.70;;;;;;5056097;28;20880;-63
2022/05/26 03:11:48;;;;;;;0.90;0.70;;;24.90;45.60;;;;;;5055922;28;20476;-59
2022/05/26 03:14:18;;;;;;;1.13;0.70;;;24.90;45.70;;;;;;5053766;28;20112;-61
2022/05/26 03:16:43;;;;;;;0.60;0.60;;;24.90;45.70;;;;;;5054109;28;20492;-61
2022/05/26 03:19:10;;;;;;;1.05;0.60;;;24.90;45.70;;;;;;5056548;28;20020;-62
2022/05/26 03:21:36;;;;;;;0.75;0.60;;;24.90;45.70;;;;;;5053989;28;20032;-63
2022/05/26 03:24:02;;;;;;;0.80;0.60;;;24.90;45.70;;;;;;5055588;28;20078;-62
2022/05/26 03:26:28;;;;;;;0.68;0.60;;;24.90;45.80;;;;;;5055346;28;20036;-63
2022/05/26 03:28:53;;;;;;;1.48;0.77;;;24.80;45.70;;;;;;5056304;28;20202;-63
2022/05/26 03:31:20;;;;;;;1.17;0.70;;;24.80;45.80;;;;;;5054886;28;20679;-59
2022/05/26 03:42:06;;;;;;;0.88;0.60;;;24.80;45.80;;;;;;5033761;28;20040;-60
2022/05/26 03:44:33;;;;;;;0.60;0.60;;;24.80;45.80;;;;;;5058680;28;20395;-59
2022/05/26 03:46:59;;;;;;;1.20;0.75;;;24.80;45.80;;;;;;5059127;28;20028;-59
2022/05/26 03:49:25;;;;;;;0.68;0.60;;;24.80;45.80;;;;;;5059176;28;20031;-62
2022/05/26 03:51:50;;;;;;;0.73;0.60;;;24.80;45.80;;;;;;5056055;28;20369;-63
2022/05/26 03:54:16;;;;;;;1.08;0.70;;;24.80;45.80;;;;;;5058080;28;20040;-63
2022/05/26 03:56:41;;;;;;;1.27;0.80;;;24.80;45.90;;;;;;5059040;28;20056;-61
2022/05/26 03:59:07;;;;;;;0.60;0.57;;;24.80;45.90;;;;;;5058203;28;21799;-62
2022/05/26 04:01:33;;;;;;;1.00;0.60;;;24.80;46.50;;;;;;5057879;28;20032;-60
2022/05/26 04:03:58;;;;;;;1.00;0.63;;;24.70;45.90;;;;;;5058722;28;20521;-63
2022/05/26 04:06:25;;;;;;;0.77;0.60;;;24.80;45.90;;;;;;5056201;28;20024;-63
2022/05/26 04:08:51;;;;;;;0.82;0.60;;;24.80;45.90;;;;;;5059033;28;20020;-59
2022/05/26 04:11:17;;;;;;;0.80;0.60;;;24.70;45.90;;;;;;5057605;28;20028;-62
2022/05/26 04:13:43;;;;;;;1.77;0.65;;;24.80;45.90;;;;;;5059957;28;20032;-59
2022/05/26 04:16:08;;;;;;;0.50;0.50;;;24.80;45.90;;;;;;5058691;28;20106;-62
2022/05/26 04:18:34;;;;;;;0.85;0.70;;;24.70;45.90;;;;;;5059236;28;20491;-57
2022/05/26 04:21:08;;;;;;;1.00;0.70;;;24.70;45.90;;;;;;5055764;28;20111;-60
2022/05/26 04:23:35;;;;;;;0.77;0.60;;;24.70;45.90;;;;;;5057397;28;20033;-59
2022/05/26 04:26:01;;;;;;;0.70;0.60;;;24.70;45.90;;;;;;5058569;28;20020;-57
2022/05/26 04:28:27;;;;;;;0.70;0.60;;;24.70;46.00;;;;;;5058026;28;20025;-62
2022/05/26 04:30:52;;;;;;;0.70;0.60;;;24.70;46.00;;;;;;5055499;28;20505;-60
2022/05/26 04:33:18;;;;;;;0.73;0.57;;;24.70;46.00;;;;;;5059697;28;20025;-64
2022/05/26 04:35:43;;;;;;;0.60;0.60;;;24.60;46.00;;;;;;5055548;28;20084;-60
2022/05/26 04:38:09;;;;;;;0.73;0.70;;;24.60;45.90;;;;;;5057073;28;20072;-59
2022/05/26 04:40:35;;;;;;;0.93;0.63;;;24.60;46.00;;;;;;5058084;28;20659;-60
2022/05/26 04:43:01;;;;;;;1.38;0.70;;;24.60;46.00;;;;;;5057363;28;20071;-63
2022/05/26 04:45:27;;;;;;;0.75;0.60;;;24.60;46.00;;;;;;5057197;28;20473;-63
2022/05/26 04:47:53;;;;;;;0.70;0.70;;;24.70;46.00;;;;;;5059321;28;20084;-63
2022/05/26 04:50:21;;;;;;;1.02;0.73;;;24.70;46.10;;;;;;5056666;28;20044;-63
2022/05/26 04:52:47;;;;;;;0.70;0.60;;;24.60;46.00;;;;;;5055259;28;20353;-58
2022/05/26 04:55:13;;;;;;;0.80;0.55;;;24.60;46.00;;;;;;5056666;28;20128;-62
2022/05/26 04:57:38;;;;;;;0.65;0.60;;;24.60;46.00;;;;;;5058113;28;20027;-62
2022/05/26 05:00:07;;;;;;;1.25;0.70;;;24.60;46.00;;;;;;5057215;28;20025;-60
2022/05/26 05:02:33;;;;;;;0.85;0.60;;;24.60;46.00;;;;;;5057343;28;20035;-62
2022/05/26 05:04:59;;;;;;;0.50;0.50;;;24.60;46.10;;;;;;5055634;28;20381;-60
2022/05/26 05:07:26;;;;;;;0.85;0.60;;;24.60;46.10;;;;;;5047532;28;20059;-63
2022/05/26 05:09:51;;;;;;;0.70;0.52;;;24.60;46.10;;;;;;5056859;28;20115;-60
2022/05/26 05:12:20;;;;;;;0.82;0.70;;;24.60;46.10;;;;;;5055192;28;20108;-60
2022/05/26 05:14:49;;;;;;;1.00;0.70;;;24.60;46.10;;;;;;5053623;28;20020;-58
2022/05/26 05:17:16;;;;;;;1.58;0.60;;;24.60;46.10;;;;;;5055541;28;20247;-59
2022/05/26 05:19:42;;;;;;;0.50;0.50;;;24.50;46.10;;;;;;5055262;28;20024;-58
2022/05/26 05:22:25;;;;;;;0.60;0.60;;;24.50;46.10;;;;;;5054142;28;20033;-63
2022/05/26 05:25:18;;;;;;;0.50;0.50;;;24.50;46.10;;;;;;5056735;28;20043;-58
2022/05/26 05:27:50;;;;;;;1.00;0.70;;;24.50;46.10;;;;;;5053304;28;20063;-63
2022/05/26 05:30:29;;;;;;;0.50;0.50;;;24.50;46.10;;;;;;5051315;28;20052;-62
2022/05/26 05:33:03;;;;;;;0.52;0.52;;;24.50;46.10;;;;;;5054087;28;20107;-62
2022/05/26 05:35:37;;;;;;;0.75;0.70;;;24.50;46.10;;;;;;5052192;28;20039;-60
2022/05/26 05:38:03;;;;;;;1.25;0.90;;;24.50;44.80;;;;;;5058376;28;20035;-59
2022/05/26 05:40:28;;;;;;;1.13;0.80;;;24.30;44.20;;;;;;5058100;28;21275;-59
2022/05/26 05:42:54;;;;;;;1.13;0.85;;;24.20;44.60;;;;;;5056847;28;20567;-62
2022/05/26 05:45:20;;;;;;;0.90;0.70;;;24.20;44.50;;;;;;5055834;28;20083;-59
2022/05/26 05:47:45;;;;;;;1.23;0.80;;;24.20;44.30;;;;;;5057248;28;20060;-60
2022/05/26 05:50:11;;;;;;;1.50;0.80;;;24.20;44.10;;;;;;5056146;28;20063;-62
2022/05/26 05:52:36;;;;;;;1.80;1.10;;;24.10;43.50;;;;;;5055071;28;20059;-62
2022/05/26 05:55:04;;;;;;;1.63;1.00;;;24.00;44.10;;;;;;5051906;28;20056;-60
2022/05/26 05:57:30;;;;;;;1.85;1.00;;;23.80;43.80;;;;;;5056675;28;20036;-63
2022/05/26 05:59:55;;;;;;;1.52;1.00;;;23.80;43.90;;;;;;5056673;28;20047;-61
2022/05/26 06:02:21;;;;;;;1.65;1.00;;;23.80;44.00;;;;;;5054878;28;20024;-61
2022/05/26 06:04:47;;;;;;;1.77;1.02;;;23.70;44.20;;;;;;5055152;28;20028;-61
2022/05/26 06:07:18;;;;;;;1.50;0.80;;;23.70;44.30;;;;;;5050616;28;20500;-61
2022/05/26 06:09:45;;;;;;;1.98;0.80;;;23.80;44.30;;;;;;5055120;28;20211;-59
2022/05/26 06:12:12;;;;;;;1.13;0.70;;;23.80;44.20;;;;;;5056235;28;20523;-58
2022/05/26 06:14:39;;;;;;;1.35;0.70;;;23.80;44.30;;;;;;5056433;28;20349;-60
2022/05/26 06:17:07;;;;;;;1.48;0.70;;;23.90;44.80;;;;;;5058395;28;20032;-62
2022/05/26 06:19:33;;;;;;;1.70;0.80;;;23.90;44.80;;;;;;5055738;28;20023;-62
2022/05/26 06:21:59;;;;;;;2.05;0.70;;;23.90;44.30;;;;;;5053341;28;20028;-59
2022/05/26 06:24:25;;;;;;;0.95;0.70;;;23.90;44.30;;;;;;5054203;28;20032;-63
2022/05/26 06:26:51;;;;;;;1.30;0.60;;;23.90;44.40;;;;;;5057236;28;20593;-61
2022/05/26 06:37:29;;;;;;;0.85;0.60;;;23.90;44.50;;;;;;5054586;28;20693;-60
2022/05/26 06:39:55;;;;;;;0.90;0.63;;;23.90;44.60;;;;;;5053886;28;20025;-62
2022/05/26 06:42:25;;;;;;;0.93;0.63;;;23.90;44.70;;;;;;5055389;28;20029;-59
2022/05/26 06:44:51;;;;;;;;;;;23.90;44.70;;;;;;5056941;28;20036;-61
2022/05/26 06:47:20;;;;;;;0.85;0.60;;;23.90;44.80;;;;;;5057186;28;19919;-58
2022/05/26 06:49:46;;;;;;;1.27;0.70;;;23.90;44.80;;;;;;5053753;28;20532;-58
2022/05/26 06:52:14;;;;;;;2.47;0.68;;;23.90;44.90;;;;;;5053986;28;20029;-60
2022/05/26 06:54:43;;;;;;;0.88;0.70;;;23.90;45.00;;;;;;5054778;28;20066;-58
2022/05/26 06:57:10;;;;;;;1.27;0.70;;;23.90;45.10;;;;;;5055763;28;20028;-61
2022/05/26 06:59:36;;;;;;;1.63;0.50;;;23.90;45.10;;;;;;5055629;28;20028;-62
2022/05/26 07:02:04;;;;;;;1.00;0.60;;;23.90;45.20;;;;;;5052593;28;20082;-63
2022/05/26 07:04:30;;;;;;;0.68;0.60;;;23.90;45.20;;;;;;5054888;28;20059;-60
2022/05/26 07:06:56;;;;;;;0.73;0.60;;;23.90;45.30;;;;;;5057052;28;20067;-62
2022/05/26 07:09:23;;;;;;;1.20;0.60;;;23.90;45.30;;;;;;5059884;28;20126;-63
2022/05/26 07:11:48;;;;;;;1.27;0.60;;;23.90;45.40;;;;;;5059165;28;20094;-62
2022/05/26 07:14:14;;;;;;;1.10;0.70;;;23.90;45.40;;;;;;5062170;28;20036;-61
2022/05/26 07:16:42;;;;;;;0.90;0.77;;;23.90;45.40;;;;;;5058510;28;20146;-58
2022/05/26 07:19:07;;;;;;;0.98;0.60;;;23.90;45.50;;;;;;5058240;28;20024;-61
2022/05/26 07:21:33;;;;;;;0.50;0.50;;;23.90;45.50;;;;;;5055980;28;20028;-61
2022/05/26 07:23:59;;;;;;;0.98;0.60;;;23.90;45.60;;;;;;5056592;28;20135;-61
2022/05/26 07:26:26;;;;;;;0.80;0.70;;;23.90;45.60;;;;;;5057885;28;20035;-62
2022/05/26 07:28:52;;;;;;;0.73;0.60;;;23.90;45.60;;;;;;5059661;28;20388;-63
2022/05/26 07:31:18;;;;;;;0.75;0.55;;;23.90;45.70;;;;;;5058040;28;20381;-58
2022/05/26 07:33:44;;;;;;;0.60;0.60;;;23.90;45.70;;;;;;5058975;28;20096;-61
2022/05/26 07:41:16;;;;;;;1.02;0.65;;;23.90;45.70;;;;;;5056387;28;20224;-60
2022/05/26 07:41:42;;;;;;;0.60;0.60;;;23.90;45.70;;;;;;5058866;28;20067;-64
2022/05/26 07:44:09;;;;;;;0.65;0.50;;;23.90;45.80;;;;;;5060603;28;20034;-59
2022/05/26 07:46:35;;;;;;;0.50;0.50;;;23.90;45.80;;;;;;5059513;28;20025;-59
2022/05/26 07:49:00;;;;;;;0.60;0.50;;;23.90;45.80;;;;;;5059450;28;20036;-62
2022/05/26 07:51:26;;;;;;;0.63;0.50;;;23.90;45.80;;;;;;5056477;28;20037;-61
2022/05/26 07:53:51;;;;;;;0.70;0.50;;;23.90;45.90;;;;;;5057501;28;20042;-59
2022/05/26 07:56:18;;;;;;;0.65;0.55;;;23.90;46.00;;;;;;5055923;28;20047;-61
2022/05/26 07:58:44;;;;;;;0.60;0.60;;;23.90;46.00;;;;;;5058657;28;20103;-59
2022/05/26 08:01:10;;;;;;;1.10;0.65;;;23.90;45.90;;;;;;5055570;28;20337;-59
2022/05/26 08:03:37;;;;;;;0.50;0.50;;;23.90;46.00;;;;;;5057594;28;20769;-59
2022/05/26 08:06:03;;;;;;;0.70;0.60;;;23.90;46.00;;;;;;5056669;28;20135;-59
2022/05/26 08:08:31;;;;;;;0.73;0.60;;;23.90;46.00;;;;;;5059429;28;20507;-61
2022/05/26 08:10:57;;;;;;;1.17;0.68;;;23.90;46.00;;;;;;5059256;28;20046;-58
2022/05/26 08:13:23;;;;;;;1.25;0.70;;;23.90;46.10;;;;;;5058876;28;20542;-58
2022/05/26 08:15:49;;;;;;;0.60;0.50;;;23.90;46.10;;;;;;5058695;28;20584;-64
2022/05/26 08:18:16;;;;;;;0.57;0.57;;;23.90;46.10;;;;;;5059187;28;20016;-59
2022/05/26 08:20:42;;;;;;;1.10;0.70;;;23.90;46.10;;;;;;5054404;28;20028;-58
2022/05/26 08:23:07;;;;;;;0.70;0.60;;;23.90;46.10;;;;;;5056803;28;20033;-62
2022/05/26 08:25:34;;;;;;;0.63;0.57;;;23.90;46.20;;;;;;5055065;28;20032;-60
2022/05/26 08:28:00;;;;;;;0.60;0.60;;;23.90;46.10;;;;;;5056319;28;20028;-62
2022/05/26 08:30:26;;;;;;;0.88;0.63;;;23.90;46.20;;;;;;5057224;28;22210;-62
2022/05/26 08:32:55;;;;;;;0.50;0.50;;;23.90;46.20;;;;;;5056729;28;20028;-58
2022/05/26 08:35:22;;;;;;;0.65;0.60;;;23.90;46.20;;;;;;5050439;28;20035;-60
2022/05/26 08:37:48;;;;;;;0.60;0.60;;;23.90;46.20;;;;;;5054298;28;20507;-62
2022/05/26 08:40:41;;;;;;;1.00;0.55;;;23.90;46.20;;;;;;5057525;28;20021;-63
2022/05/26 08:43:15;;;;;;;1.25;0.70;;;23.90;46.20;;;;;;5049365;28;20040;-60
2022/05/26 08:45:47;;;;;;;0.60;0.60;;;23.90;46.20;;;;;;5057062;28;20096;-59
2022/05/26 08:48:29;;;;;;;0.60;0.60;;;23.90;46.20;;;;;;5057515;28;20079;-63
2022/05/26 08:50:56;;;;;;;0.80;0.57;;;23.90;46.30;;;;;;5054903;28;20406;-58
2022/05/26 08:53:37;;;;;;;0.70;0.60;;;23.90;46.30;;;;;;5057244;28;20025;-59
2022/05/26 08:56:04;;;;;;;0.70;0.60;;;23.90;46.30;;;;;;5057756;28;20137;-63
2022/05/26 08:58:42;;;;;;;0.63;0.60;;;23.90;46.30;;;;;;5058025;28;20372;-63
2022/05/26 09:01:11;;;;;;;0.50;0.50;;;23.90;46.30;;;;;;5053910;28;20074;-62
2022/05/26 09:03:37;;;;;;;0.50;0.50;;;23.90;46.30;;;;;;5059295;28;20047;-59
2022/05/26 09:06:02;;;;;;;0.60;0.60;;;23.90;46.30;;;;;;5056780;28;20497;-61
2022/05/26 09:14:05;;;;;;;0.73;0.50;;;23.90;46.30;;;;;;5056579;28;20038;-58
2022/05/26 09:16:40;;;;;;;0.50;0.50;;;23.90;46.30;;;;;;5056222;28;20099;-62
2022/05/26 09:19:21;;;;;;;0.57;0.57;;;23.90;46.40;;;;;;5057033;28;20037;-60
2022/05/26 09:21:49;;;;;;;0.40;0.40;;;23.90;46.40;;;;;;5050527;28;20064;-60
2022/05/26 09:24:30;;;;;;;0.50;0.50;;;23.90;45.90;;;;;;5056054;28;20090;-62
2022/05/26 09:27:04;;;;;;;0.60;0.60;;;23.90;46.40;;;;;;5056913;28;20317;-61
2022/05/26 09:29:33;;;;;;;0.45;0.45;;;23.90;46.40;;;;;;5057534;28;20525;-57
2022/05/26 09:32:00;;;;;;;0.98;0.60;;;23.90;46.40;;;;;;5056237;28;20032;-63
2022/05/26 09:34:28;;;;;;;0.60;0.60;;;23.90;46.40;;;;;;5055147;28;20028;-62
2022/05/26 09:36:55;;;;;;;0.98;0.60;;;23.90;46.40;;;;;;5053237;28;20051;-61
2022/05/26 09:39:28;;;;;;;0.60;0.50;;;23.90;46.40;;;;;;5056872;28;20149;-59
2022/05/26 09:41:57;;;;;;;0.57;0.50;;;23.90;46.50;;;;;;5056003;28;20147;-61
2022/05/26 09:44:45;;;;;;;0.50;0.50;;;23.90;46.50;;;;;;5055299;28;20118;-59
2022/05/26 09:47:33;;;;;;;0.50;0.50;;;23.90;46.50;;;;;;5054132;28;20059;-58
2022/05/26 09:50:01;;;;;;;0.75;0.60;;;23.90;46.50;;;;;;5055381;28;20032;-61
2022/05/26 09:52:38;;;;;;;0.55;0.50;;;23.90;46.50;;;;;;5055086;28;20035;-63
2022/05/26 09:55:15;;;;;;;0.60;0.60;;;23.90;46.50;;;;;;5053931;28;20042;-61
2022/05/26 09:57:41;;;;;;;0.60;0.60;;;23.90;46.50;;;;;;5056785;28;20033;-58
2022/05/26 10:00:39;;;;;;;0.50;0.50;;;23.90;46.50;;;;;;5054899;28;20059;-61
2022/05/26 10:03:14;;;;;;;0.60;0.60;;;23.90;46.50;;;;;;5026013;28;20032;-60
2022/05/26 10:05:51;;;;;;;0.50;0.50;;;23.90;46.60;;;;;;5054062;28;20036;-62
2022/05/26 10:08:32;;;;;;;0.45;0.45;;;23.90;46.50;;;;;;5055985;28;20032;-60
2022/05/26 10:11:13;;;;;;;0.80;0.60;;;23.90;46.60;;;;;;5057002;28;20032;-59
2022/05/26 10:13:50;;;;;;;0.75;0.47;;;23.90;46.60;;;;;;5057654;28;20481;-61
2022/05/26 10:16:29;;;;;;;0.47;0.47;;;23.90;46.50;;;;;;5055397;28;20364;-61
2022/05/26 10:19:19;;;;;;;0.65;0.50;;;23.90;46.60;;;;;;5058123;28;20033;-63
2022/05/26 10:22:09;;;;;;;0.50;0.50;;;23.90;46.60;;;;;;5052965;28;20028;-59
2022/05/26 10:24:43;;;;;;;0.40;0.40;;;23.90;46.50;;;;;;5055784;28;20036;-62
2022/05/26 10:27:46;;;;;;;0.57;0.50;;;23.90;46.50;;;;;;5052667;28;20047;-60
2022/05/26 10:30:49;;;;;;;0.50;0.50;;;23.90;46.50;;;;;;5052303;28;20683;-59
2022/05/26 10:33:26;;;;;;;0.40;0.40;;;23.90;46.60;;;;;;5052250;28;20029;-61
2022/05/26 10:36:19;;;;;;;0.80;0.50;;;23.90;46.50;;;;;;5052128;28;20037;-60
2022/05/26 10:38:45;;;;;;;0.82;0.50;;;23.90;46.60;;;;;;5053441;28;20461;-61
2022/05/26 10:41:43;;;;;;;0.60;0.50;;;23.90;46.60;;;;;;5055337;28;20040;-60
2022/05/26 10:44:26;;;;;;;0.50;0.50;;;23.90;46.60;;;;;;5056634;28;20172;-63
2022/05/26 10:47:13;;;;;;;0.50;0.50;;;23.90;46.70;;;;;;5056334;28;20029;-59
2022/05/26 10:50:02;;;;;;;0.40;0.40;;;23.90;46.70;;;;;;5058871;28;20036;-62
2022/05/26 10:52:37;;;;;;;0.95;0.60;;;24.00;46.70;;;;;;5056358;28;20036;-56
2022/05/26 10:55:10;;;;;;;0.80;0.47;;;23.90;46.60;;;;;;5056892;28;20040;-62
2022/05/26 10:57:41;;;;;;;0.75;0.60;;;23.90;46.70;;;;;;5056216;28;20043;-62
2022/05/26 11:00:13;;;;;;;0.50;0.50;;;23.90;47.20;;;;;;5057900;28;20028;-61
2022/05/26 11:02:38;;;;;;;0.50;0.50;;;24.00;46.70;;;;;;5059346;28;20036;-58
2022/05/26 11:05:13;;;;;;;0.55;0.55;;;24.00;46.70;;;;;;5056882;28;20020;-61
2022/05/26 11:07:58;;;;;;;0.50;0.50;;;24.00;46.70;;;;;;5053847;28;20064;-56
2022/05/26 11:10:31;;;;;;;0.50;0.50;;;23.90;46.60;;;;;;5057145;28;20040;-61
2022/05/26 11:13:01;;;;;;;0.52;0.52;;;24.00;46.70;;;;;;5059137;28;20119;-60
2022/05/26 11:18:49;;;;;;;0.75;0.50;;;24.00;46.70;;;;;;5057737;28;20102;-59
2022/05/26 11:21:21;;;;;;;0.50;0.50;;;24.00;46.70;;;;;;5055115;28;20661;-63
2022/05/26 11:23:47;;;;;;;0.40;0.40;;;23.90;46.60;;;;;;5056019;28;20028;-61
2022/05/26 11:26:22;;;;;;;0.47;0.47;;;23.90;46.70;;;;;;5053924;28;20073;-62
2022/05/26 11:29:07;;;;;;;0.63;0.60;;;23.90;46.90;;;;;;5051359;28;20028;-63
2022/05/26 11:37:36;;;;;;;1.20;0.43;;;24.00;46.80;;;;;;5067853;28;20039;-62
2022/05/26 11:40:06;;;;;;;0.50;0.50;;;24.00;46.70;;;;;;5061940;28;20024;-61
2022/05/26 11:42:51;;;;;;;0.50;0.50;;;24.10;46.70;;;;;;5055554;28;20039;-60
2022/05/26 11:45:22;;;;;;;0.68;0.60;;;24.10;46.70;;;;;;5049890;28;20024;-61
2022/05/26 11:47:55;;;;;;;0.50;0.50;;;24.10;46.70;;;;;;5048944;28;20036;-62
2022/05/26 11:50:24;;;;;;;0.60;0.60;;;24.10;46.70;;;;;;5050291;28;20071;-62
2022/05/26 11:52:52;;;;;;;0.50;0.50;;;24.10;46.70;;;;;;5048449;28;20130;-56
2022/05/26 11:55:24;;;;;;;0.50;0.50;;;24.10;46.60;;;;;;5050982;28;20373;-62
2022/05/26 11:57:54;;;;;;;0.60;0.50;;;24.10;46.50;;;;;;5055515;28;20140;-62
2022/05/26 12:00:35;;;;;;;0.60;0.60;;;24.10;46.50;;;;;;5056484;28;20740;-61
2022/05/26 12:03:22;;;;;;;0.80;0.50;;;24.20;46.50;;;;;;5055148;28;20397;-60
2022/05/26 12:05:57;;;;;;;1.20;0.52;;;24.20;46.40;;;;;;5055239;28;20035;-61
2022/05/26 12:08:28;;;;;;;0.50;0.50;;;24.20;46.40;;;;;;5055935;28;20149;-60
2022/05/26 12:11:00;;;;;;;0.65;0.50;;;24.20;46.40;;;;;;5056417;28;21303;-63
2022/05/26 12:13:27;;;;;;;0.95;0.70;;;24.20;46.30;;;;;;5054363;28;20066;-60
2022/05/26 12:16:11;;;;;;;0.55;0.50;;;24.20;46.20;;;;;;5050042;28;20100;-63
2022/05/26 12:18:49;;;;;;;0.70;0.52;;;24.30;46.20;;;;;;5057341;28;20054;-61
2022/05/26 12:21:48;;;;;;;0.50;0.43;;;24.30;46.20;;;;;;5048800;28;20031;-61
2022/05/26 12:24:31;;;;;;;0.80;0.60;;;24.40;46.10;;;;;;5054244;28;20092;-61
2022/05/26 12:26:58;;;;;;;0.68;0.60;;;24.40;46.00;;;;;;5052423;28;20134;-62
2022/05/26 12:29:49;;;;;;;0.60;0.50;;;24.50;45.90;;;;;;5055075;28;20048;-61
2022/05/26 12:32:32;;;;;;;0.50;0.50;;;24.50;45.80;;;;;;5055598;28;20174;-60
2022/05/26 12:35:10;;;;;;;0.70;0.60;;;24.50;45.80;;;;;;5056060;28;20149;-60
2022/05/26 12:37:47;;;;;;;0.70;0.60;;;24.60;45.80;;;;;;5055525;28;20094;-60
2022/05/26 12:40:34;;;;;;;0.55;0.55;;;24.60;45.70;;;;;;5060968;28;20126;-62
2022/05/26 12:43:28;;;;;;;0.80;0.50;;;24.60;45.60;;;;;;5054904;28;20531;-60
2022/05/26 12:46:00;;;;;;;0.60;0.50;;;24.60;45.50;;;;;;5052570;28;20119;-63
2022/05/26 12:48:41;;;;;;;0.57;0.57;;;24.60;45.50;;;;;;5053695;28;20047;-62
2022/05/26 12:51:11;;;;;;;0.68;0.60;;;24.60;45.50;;;;;;5052577;28;20103;-61
2022/05/26 12:53:40;;;;;;;0.75;0.50;;;24.70;45.50;;;;;;5056530;28;20028;-61
2022/05/26 12:56:11;;;;;;;1.05;0.50;;;24.70;45.40;;;;;;5054795;28;20163;-62
2022/05/26 12:58:43;;;;;;;1.60;0.60;;;24.70;45.80;;;;;;5055589;28;20066;-59
2022/05/26 13:01:14;;;;;;;0.80;0.50;;;24.80;45.30;;;;;;5052772;28;20032;-59
2022/05/26 13:03:43;;;;;;;0.55;0.50;;;24.80;45.10;;;;;;5056133;28;20031;-61
2022/05/26 13:06:13;;;;;;;1.15;0.60;;;24.80;45.10;;;;;;5050697;28;20519;-59
2022/05/26 13:08:50;;;;;;;0.57;0.50;;;24.80;45.10;;;;;;5055117;28;20128;-62
2022/05/26 13:11:42;;;;;;;0.80;0.50;;;24.80;45.00;;;;;;5055924;28;21123;-60
2022/05/26 13:14:32;;;;;;;0.82;0.60;;;24.90;45.00;;;;;;5057332;28;20032;-62
2022/05/26 13:17:22;;;;;;;0.60;0.50;;;24.90;45.00;;;;;;5051244;28;20849;-59
2022/05/26 13:19:59;;;;;;;2.33;0.70;;;24.90;45.10;;;;;;5054495;28;20065;-63
2022/05/26 13:22:38;;;;;;;0.55;0.40;;;24.90;45.20;;;;;;5041050;28;20035;-60
2022/05/26 13:25:11;;;;;;;0.82;0.60;;;24.90;45.00;;;;;;5054535;28;20594;-60
2022/05/26 13:27:40;;;;;;;0.50;0.50;;;24.90;45.00;;;;;;5051526;28;20021;-59
2022/05/26 13:33:07;;;;;;;0.80;0.60;;;24.90;45.00;;;;;;5053709;28;20111;-64
2022/05/26 13:35:38;;;;;;;0.73;0.50;;;24.90;45.10;;;;;;5050540;28;20123;-63
2022/05/26 13:38:04;;;;;;;1.13;0.60;;;24.90;45.10;;;;;;5051911;28;20346;-58
2022/05/26 13:40:29;;;;;;;0.85;0.55;;;24.90;45.10;;;;;;5052809;28;20125;-61
2022/05/26 13:42:56;;;;;;;0.80;0.60;;;24.90;45.10;;;;;;5051897;28;20368;-60
2022/05/26 13:45:25;;;;;;;0.57;0.50;;;25.00;45.20;;;;;;5054023;28;20037;-64
2022/05/26 13:48:12;;;;;;;0.73;0.68;;;24.90;45.10;;;;;;5049070;28;20147;-60
2022/05/26 13:50:50;;;;;;;1.02;0.60;;;24.90;45.20;;;;;;5048960;28;20039;-62
2022/05/26 13:53:17;;;;;;;1.15;0.50;;;24.90;45.30;;;;;;5053813;28;20112;-61